Central Sonoma County Latest

37 Stations

15 Minute Data | America/Los_Angeles
as of 9/1/26 1:23 AM PDT
Station Date Time Temp (°F) RH (%) Dew Pt (°F) Wind Spd (mph) Wind Dir (°) Wind Gust (mph) Latest Rain (In) Daily Rain (In) Daily Max Temp (°F) Daily Min Temp (°F)
Windsor-NW (Ranch 8) 9/1/26 0115 52.7   0.1 83   1 47.7   0.1 0.0   0.0 ENE | 71 0.0   0.0 0.00 0.00 53.2   0.1 52.6   0.2
Windsor-East (Ranch 16) 9/1/26 0115 53.6   3.5 92   3 51.5   4.2 1.5   1.3 E | 80 2.6   1.4 0.00 0.00 54.0   3.4 52.8   3.3
Mark West-North (Ranch 14) 9/1/26 0115 53.2   0.5 92   3 51.0   0.3 0.5   0.1 WSW | 240 1.2   1.3 0.00 0.00 53.8   0.1 52.7   0.7
Windsor-SE (Silk Rd) 9/1/26 0115 49.1   2.5 92   0 46.8   2.4 1.2   1.2 NE | 47 2.4   2.4 0.00 0.00 49.4   2.3 48.9   2.7
Fulton-NW (Ranch 5) 9/1/26 0115 51.5   1.4 93   0 49.6   1.3 0.5   1.6 NNE | 26 1.8   2.2 0.00 0.00 51.7   1.5 51.3   1.5
Bisordi (Fulton) 9/1/26 0115 49.2   1.2 92   2 47.0   0.7 0.9   0.5 ENE | 60 1.5   0.2 0.00 0.00 49.8   1.7 49.2   1.3
Windsor-South (Laughlin Rd) 9/1/26 0115 53.4   0.2 90   0 50.5   0.1 - - - 0.00 0.00 53.7   0.4 52.8   0.2
Fulton-SE (Barnes Rd) 9/1/26 0115 52.1   1.6 89   1 48.9   1.8 0.0   0.0 N | 0 0.0   0.4 0.00 0.00 53.0   1.8 52.1   1.5
Fulton-SW (Ranch 21) 9/1/26 0115 52.0   0.3 92   1 49.9   0.0 1.0   0.7 ESE | 108 1.9   0.4 0.00 0.00 52.2   0.4 51.7   0.4
NW Santa Rosa (Piner Road) 9/1/26 0115 50.3   1.7 100   0 50.3   1.7 1.5   1.4 NE | 49 2.1   1.2 0.00 0.00 51.2   1.2 48.8   2.8
River Rd South (Denner Ranch) 9/1/26 0115 51.4   0.5 0   0 -66.9   0.3 1.4   0.9 E | 82 2.8   1.1 - - 51.9   0.0 50.8   0.9
West Santa Rosa (LOV Vineyard) 8/26/26 0900 53.3   5.2 97   6 52.4   3.5 1.0   0.1 SW | 224 3.6   0.0 0.00 0.00 53.6   5.2 50.2   1.8
Guerneville Rd (Prokopakis) 9/1/26 0115 50.3   1.6 92   0 48.1   1.5 - - - 0.00 0.00 50.4   1.7 50.0   1.2
SunnyView Vineyard (SCWC) 9/1/26 0115 47.5   3.5 93   3 45.5   2.7 0.4   0.4 ENE | 71 1.3   1.3 0.00 0.00 48.1   3.6 46.8   3.5
Guerneville Rd West (Balletto) 9/1/26 0115 49.9   1.7 92   1 47.6   2.0 1.1   1.0 E | 97 2.2   1.4 0.00 0.00 50.4   1.4 49.5   1.9
Sanchietti Ranch 9/1/26 0115 50.5   0.3 91   2 48.1   0.1 1.2   0.6 E | 100 2.1   0.7 0.00 0.00 51.4   0.6 50.5   0.3
Occidental Rd (Sebastopol) 9/1/26 0115 52.2   3.6 100   0 52.2   3.6 0.8   0.5 SSE | 150 1.8   0.2 0.00 0.00 52.6   3.7 51.8   3.4
Harper's Rest (Windsor-West) 9/1/26 0115 50.2   1.7 93   2 48.2   2.1 0.3   1.0 N | 356 2.1   1.4 0.00 0.00 50.6   1.5 49.7   1.6
Lower Westside Rd (Ranch 12) 9/1/26 0115 50.3   2.1 92   4 48.2   0.8 0.3   0.0 ESE | 119 1.4   0.1 0.00 0.00 50.8   1.9 49.7   2.4
Guerneville (Laughlin Rd) 9/1/26 0115 47.8   1.5 90   5 45.0   0.1 0.2   0.2 WSW | 242 1.3   1.3 0.00 0.00 48.3   1.6 47.8   1.5
Korbel (Winery) 9/1/26 0115 50.3   3.2 93   4 48.3   2.1 0.0   0.9 N | 0 0.0   2.6 0.00 0.00 51.3   2.6 50.3   3.2
Forestville (Shone Farms) 9/1/26 0115 55.0   2.1 91   2 52.6   1.4 0.8   0.1 WNW | 297 2.3   0.0 0.00 0.00 56.3   2.1 54.1   2.2
Forestville-NE (Ranch 30) 9/1/26 0115 51.6   1.6 95   1 50.3   1.8 0.7   0.0 SSE | 168 2.4   0.5 0.00 0.00 53.3   3.3 51.6   2.1
Foggy Bend (Ranch 41) 9/1/26 0115 53.6   1.8 93   0 51.6   1.7 1.0   0.9 W | 266 2.8   1.6 0.00 0.00 53.9   2.0 53.1   1.4
Last Stop 9/1/26 0115 50.0   1.4 93   0 48.2   1.2 0.2   0.2 SW | 232 1.5   1.5 0.00 0.00 50.1   1.4 49.5   1.3
Green Valley Vineyard 9/1/26 0115 51.4   2.3 95   0 50.1   2.4 0.2   0.0 SW | 221 1.8   0.7 0.00 0.00 51.7   2.1 51.1   2.2
Park Royal 9/1/26 0115 50.2   1.7 90   1 47.2   2.0 - - - 0.00 0.00 50.5   1.5 49.8   1.8
Merino 9/1/26 0115 48.0   1.4 98   3 47.5   0.6 1.2   1.2 ENE | 72 2.0   2.0 0.00 0.00 48.5   1.5 47.5   1.2
Green Valley (Sanchietti) 9/1/26 0115 46.2   0.5 - - - - - - - 50.9   2.4 46.0   0.8
Keefer Ranch (Green Valley) 9/1/26 0115 48.2   2.0 94   0 46.4   2.0 - - - 0.00 0.00 48.7   2.2 48.2   2.0
Graton-West (Dutton Ranch) 9/1/26 0115 49.6   0.6 100   0 49.6   0.6 0.4   0.2 N | 359 1.2   0.1 0.00 0.00 50.3   1.0 49.2   1.0
Graton-South (Mill Station Rd) 9/1/26 0115 54.2   7.2 94   0 52.5   7.3 0.0   0.0 N | 0 0.0   0.0 0.00 0.00 54.6   7.2 53.9   7.2
Occidental (Horseshoe Bend) 9/1/26 0115 51.6   0.4 96   4 50.5   1.5 - - - 0.00 0.00 52.4   0.2 51.2   0.8
Sexton Valley (Jacqueline's Blk) 9/1/26 0115 54.1   6.0 94   0 52.6   6.1 0.8   0.5 WNW | 288 3.2   1.9 0.00 0.00 54.4   6.0 53.5   5.6
Sebastopol Hills (Burnside Rd) 9/1/26 0115 54.8   3.9 98   0 54.2   4.0 2.9   2.9 SSW | 205 5.2   5.2 0.00 0.00 54.9   3.7 54.8   4.0
Pleasant Hill 9/1/26 0115 54.3   3.9 94   0 52.7   3.9 0.9   0.1 WSW | 241 2.9   1.0 0.00 0.00 54.6   3.7 54.1   4.1
Seaview/Fort Ross (Hirsch) 9/1/26 0115 53.8   9.8 84   36 49.2   5.1 2.5   1.0 WNW | 290 4.2   1.1 0.00 0.00 53.9   10.4 53.6   8.6
Max     55.0 100 54.2 2.9 - 5.2 0.00 0.00 56.3 54.8
Avg     51.2 90 46.1 0.8 - 1.9 0.00 - - -
Min     46.2 0 -66.9 0.0 - 0.0 0.00 0.00 48.1 46.0